Time;durP1;ratioP1;P1;durP2;ratioP2;P2;SDS_P1;SDS_P2;PMS_P1;PMS_P2;Temp;Humidity;BMP_temperature;BMP_pressure;BME280_temperature;BME280_humidity;BME280_pressure;Samples;Min_cycle;Max_cycle;Signal;HPM_P1;HPM_P2
2021/12/25 00:01:15;;;;;;;21.52;14.75;;;7.90;99.90;;;;;;5108760;27;20413;-74
2021/12/25 00:03:41;;;;;;;22.90;15.18;;;7.80;99.90;;;;;;5111903;27;20412;-72
2021/12/25 00:06:07;;;;;;;24.63;15.65;;;7.80;99.90;;;;;;5114673;27;20404;-73
2021/12/25 00:08:34;;;;;;;25.50;15.50;;;7.80;99.90;;;;;;5114072;27;20771;-72
2021/12/25 00:11:02;;;;;;;21.30;14.38;;;7.70;99.90;;;;;;5100840;27;20400;-74
2021/12/25 00:13:28;;;;;;;24.00;14.65;;;7.70;99.90;;;;;;5111188;27;20415;-71
2021/12/25 00:15:54;;;;;;;23.70;15.02;;;7.70;99.90;;;;;;5116817;27;20503;-73
2021/12/25 00:18:20;;;;;;;25.00;15.93;;;7.70;99.90;;;;;;5114844;27;20404;-73
2021/12/25 00:20:46;;;;;;;21.80;13.60;;;7.70;99.90;;;;;;5114560;27;20532;-74
2021/12/25 00:23:13;;;;;;;24.42;15.25;;;7.70;99.90;;;;;;5108856;27;20415;-73
2021/12/25 00:25:45;;;;;;;24.60;15.23;;;7.60;99.90;;;;;;5115891;27;20485;-75
2021/12/25 00:29:35;;;;;;;23.08;14.75;;;7.60;99.90;;;;;;5115864;27;20419;-73
2021/12/25 00:31:43;;;;;;;23.27;16.15;;;7.60;99.90;;;;;;5083573;27;20425;-74
2021/12/25 00:33:59;;;;;;;24.77;16.70;;;7.60;99.90;;;;;;5120522;27;20399;-74
2021/12/25 00:36:27;;;;;;;23.65;15.77;;;7.60;99.90;;;;;;5098887;27;20406;-73
2021/12/25 00:38:53;;;;;;;22.70;15.90;;;7.60;99.90;;;;;;5110853;27;20416;-74
2021/12/25 00:41:21;;;;;;;26.27;17.65;;;7.60;99.90;;;;;;5115261;27;20416;-74
2021/12/25 00:43:48;;;;;;;25.73;17.50;;;7.50;99.90;;;;;;5107288;27;20408;-75
2021/12/25 00:46:14;;;;;;;24.70;17.67;;;7.50;99.90;;;;;;5107443;28;20428;-75
2021/12/25 00:48:40;;;;;;;27.17;19.33;;;7.50;99.90;;;;;;5111982;27;21002;-75
2021/12/25 00:51:06;;;;;;;26.40;18.38;;;7.50;99.90;;;;;;5108698;27;20564;-76
2021/12/25 00:53:32;;;;;;;25.98;19.33;;;7.50;99.90;;;;;;5091626;28;20484;-73
2021/12/25 00:55:58;;;;;;;24.80;17.88;;;7.40;99.90;;;;;;5113495;27;20444;-74
2021/12/25 00:58:23;;;;;;;24.17;18.17;;;7.40;99.90;;;;;;5125575;27;20400;-74
2021/12/25 01:00:51;;;;;;;23.47;18.53;;;7.40;99.90;;;;;;5107782;27;20776;-74
2021/12/25 01:03:16;;;;;;;23.80;18.23;;;7.40;99.90;;;;;;5123886;27;20405;-73
2021/12/25 01:05:42;;;;;;;24.47;18.53;;;7.40;99.90;;;;;;5108756;27;20411;-73
2021/12/25 01:08:10;;;;;;;26.25;18.80;;;7.40;99.90;;;;;;5098570;27;20479;-73
2021/12/25 01:10:36;;;;;;;26.42;19.38;;;7.40;99.90;;;;;;5112512;27;20443;-73
2021/12/25 01:15:43;;;;;;;26.27;19.58;;;7.40;99.90;;;;;;5124311;27;20528;-72
2021/12/25 01:26:54;;;;;;;26.35;19.75;;;7.20;99.90;;;;;;5101435;27;20437;-75
2021/12/25 01:37:59;;;;;;;29.80;21.52;;;7.10;99.90;;;;;;5109145;28;20502;-73
2021/12/25 01:41:30;;;;;;;29.48;22.42;;;7.10;99.90;;;;;;5100911;28;20408;-74
2021/12/25 01:49:51;;;;;;;31.75;22.88;;;7.10;99.90;;;;;;5117884;27;20404;-73
2021/12/25 01:52:16;;;;;;;31.35;22.88;;;7.00;99.90;;;;;;5113533;27;20402;-73
2021/12/25 01:54:42;;;;;;;31.27;23.13;;;7.00;99.90;;;;;;5112582;27;20467;-74
2021/12/25 01:57:08;;;;;;;37.03;24.33;;;6.90;99.90;;;;;;5111077;27;20505;-73
2021/12/25 01:59:34;;;;;;;33.03;23.67;;;6.90;99.90;;;;;;5093853;28;20385;-74
2021/12/25 02:02:00;;;;;;;31.67;23.67;;;7.00;99.90;;;;;;5123060;27;20432;-73
2021/12/25 02:04:26;;;;;;;32.55;23.45;;;6.90;99.90;;;;;;5113725;27;20961;-73
2021/12/25 02:06:52;;;;;;;32.90;23.77;;;6.90;99.90;;;;;;5105094;28;20438;-72
2021/12/25 02:09:18;;;;;;;33.58;23.95;;;6.90;99.90;;;;;;5112421;27;20399;-73
2021/12/25 02:11:44;;;;;;;33.55;23.33;;;6.90;99.90;;;;;;5113973;27;20956;-74
2021/12/25 02:14:09;;;;;;;33.03;23.58;;;6.90;99.90;;;;;;5120342;27;20397;-75
2021/12/25 02:16:50;;;;;;;29.97;22.70;;;6.90;99.90;;;;;;5115811;27;20412;-73
2021/12/25 02:19:32;;;;;;;30.38;22.13;;;6.80;99.90;;;;;;5112737;27;20772;-74
2021/12/25 02:22:03;;;;;;;32.05;20.23;;;6.80;99.90;;;;;;5110887;27;20212;-74
2021/12/25 02:24:29;;;;;;;31.90;22.52;;;6.40;99.90;;;;;;5106967;28;21095;-74
2021/12/25 02:26:55;;;;;;;35.67;24.48;;;6.40;99.90;;;;;;5107969;28;20896;-75
2021/12/25 02:29:24;;;;;;;34.50;24.35;;;6.50;99.90;;;;;;5121907;28;20446;-72
2021/12/25 02:31:50;;;;;;;36.05;24.02;;;6.60;99.90;;;;;;5099037;28;20510;-73
2021/12/25 02:34:16;;;;;;;32.50;23.13;;;6.60;99.90;;;;;;5105638;28;20916;-73
2021/12/25 02:36:42;;;;;;;35.60;23.43;;;6.60;99.90;;;;;;5111211;28;20393;-74
2021/12/25 02:39:07;;;;;;;34.15;23.50;;;6.70;99.90;;;;;;5098786;27;20480;-73
2021/12/25 02:41:33;;;;;;;31.63;22.23;;;6.60;99.90;;;;;;5113739;28;20410;-74
2021/12/25 02:43:59;;;;;;;33.37;22.57;;;6.60;99.90;;;;;;5120260;27;20956;-73
2021/12/25 02:46:37;;;;;;;31.15;21.08;;;6.60;99.90;;;;;;5124450;27;20453;-74
2021/12/25 02:49:09;;;;;;;35.67;23.20;;;6.60;99.90;;;;;;5095512;28;20424;-73
2021/12/25 02:51:35;;;;;;;31.13;21.67;;;6.60;99.90;;;;;;5119319;27;20404;-73
2021/12/25 02:54:00;;;;;;;28.97;21.73;;;6.60;99.90;;;;;;5119062;27;20404;-74
2021/12/25 02:56:26;;;;;;;32.90;22.85;;;6.50;99.90;;;;;;5113485;27;20415;-74
2021/12/25 02:58:52;;;;;;;31.60;21.80;;;6.60;99.90;;;;;;5120051;27;20406;-74
2021/12/25 03:01:19;;;;;;;31.55;22.20;;;6.50;99.90;;;;;;5111801;27;20981;-73
2021/12/25 03:03:46;;;;;;;31.67;21.35;;;6.50;99.90;;;;;;5113882;27;20529;-72
2021/12/25 03:06:12;;;;;;;31.38;20.88;;;6.50;99.90;;;;;;5097097;27;20407;-74
2021/12/25 03:08:41;;;;;;;29.30;20.67;;;6.40;99.90;;;;;;5114691;27;20415;-73
2021/12/25 03:11:08;;;;;;;31.75;19.52;;;6.40;99.90;;;;;;5121769;27;20435;-74
2021/12/25 03:13:58;;;;;;;31.48;18.33;;;6.00;99.90;;;;;;5123034;27;20180;-75
2021/12/25 03:16:21;;;;;;;;;;;5.70;99.90;;;;;;5117973;27;20488;-73
2021/12/25 03:18:50;;;;;;;;;;;5.50;99.90;;;;;;5112958;27;19908;-75
2021/12/25 03:21:17;;;;;;;30.90;14.65;;;5.30;99.90;;;;;;5117937;27;20248;-74
2021/12/25 03:23:45;;;;;;;27.52;15.35;;;5.30;99.90;;;;;;5123746;27;20227;-74
2021/12/25 03:26:12;;;;;;;29.48;16.25;;;5.20;99.90;;;;;;5110879;27;20181;-73
2021/12/25 03:28:41;;;;;;;29.08;15.77;;;5.10;99.90;;;;;;5119172;27;20253;-74
2021/12/25 03:31:15;;;;;;;28.58;18.58;;;5.00;99.90;;;;;;5117442;27;20437;-74
2021/12/25 03:33:42;;;;;;;28.27;18.63;;;5.30;99.90;;;;;;5103745;27;20410;-74
2021/12/25 03:36:08;;;;;;;28.52;18.70;;;5.60;99.90;;;;;;5115021;27;20400;-74
2021/12/25 03:38:35;;;;;;;30.05;18.65;;;5.70;99.90;;;;;;5114891;27;20441;-73
2021/12/25 03:41:01;;;;;;;30.17;18.17;;;5.80;99.90;;;;;;5101215;27;20522;-74
2021/12/25 03:43:28;;;;;;;30.33;18.83;;;5.90;99.90;;;;;;5115183;27;20408;-73
2021/12/25 03:45:55;;;;;;;31.43;18.20;;;6.00;99.90;;;;;;5091556;28;20400;-73
2021/12/25 03:59:03;;;;;;;25.10;16.77;;;6.00;99.90;;;;;;5111851;27;20415;-73
2021/12/25 04:01:46;;;;;;;28.90;17.38;;;6.00;99.90;;;;;;5108984;28;20423;-73
2021/12/25 04:04:25;;;;;;;29.40;17.73;;;6.00;99.90;;;;;;5097006;27;20403;-73
2021/12/25 04:07:01;;;;;;;27.60;17.30;;;6.00;99.90;;;;;;5119764;27;20493;-73
2021/12/25 04:09:32;;;;;;;27.67;16.80;;;6.00;99.90;;;;;;5114906;27;21067;-72
2021/12/25 04:12:06;;;;;;;24.25;15.93;;;5.90;99.90;;;;;;5098836;27;20406;-72
2021/12/25 04:14:34;;;;;;;25.23;15.77;;;5.90;99.90;;;;;;5099391;27;20731;-71
2021/12/25 04:17:00;;;;;;;21.67;14.13;;;6.00;99.90;;;;;;5110482;27;20400;-71
2021/12/25 04:19:26;;;;;;;21.45;13.73;;;5.90;99.90;;;;;;5097414;28;20411;-71
2021/12/25 04:21:57;;;;;;;21.53;13.77;;;5.90;99.90;;;;;;5120110;27;20398;-71
2021/12/25 04:24:24;;;;;;;24.88;14.25;;;5.80;99.90;;;;;;5100692;28;20954;-71
2021/12/25 04:26:50;;;;;;;24.20;14.68;;;5.80;99.90;;;;;;5094002;28;20772;-72
2021/12/25 04:30:16;;;;;;;23.30;15.10;;;5.80;99.90;;;;;;5109761;27;20896;-72
2021/12/25 04:47:48;;;;;;;18.83;10.93;;;5.80;99.90;;;;;;5106013;27;20400;-72
2021/12/25 05:04:40;;;;;;;10.75;6.13;;;5.60;99.60;;;;;;5093662;27;20477;-74
2021/12/25 05:07:20;;;;;;;11.90;6.32;;;5.60;99.70;;;;;;5092414;28;20495;-76
2021/12/25 05:09:46;;;;;;;11.52;5.70;;;5.50;99.90;;;;;;5112740;27;20967;-75
2021/12/25 05:12:12;;;;;;;10.77;6.00;;;5.50;99.90;;;;;;5117706;27;20496;-74
2021/12/25 05:14:39;;;;;;;9.35;5.20;;;5.50;99.40;;;;;;5117368;27;20494;-75
2021/12/25 05:17:06;;;;;;;8.80;4.90;;;5.40;99.60;;;;;;5106325;28;20408;-74
2021/12/25 05:19:33;;;;;;;8.45;4.75;;;5.40;99.20;;;;;;5110141;27;20400;-73
2021/12/25 05:21:58;;;;;;;8.10;4.70;;;5.30;99.00;;;;;;5104284;27;20400;-73
2021/12/25 05:24:24;;;;;;;9.88;4.75;;;5.30;99.10;;;;;;5110480;27;20408;-74
2021/12/25 05:26:57;;;;;;;8.30;4.35;;;5.20;99.10;;;;;;5088859;28;20487;-75
2021/12/25 05:29:25;;;;;;;8.17;4.50;;;5.20;99.00;;;;;;5107374;28;20435;-75
2021/12/25 05:31:52;;;;;;;7.47;4.57;;;5.20;99.00;;;;;;5139329;27;20401;-76
2021/12/25 05:34:21;;;;;;;8.98;4.65;;;5.10;98.90;;;;;;5113470;27;20479;-73
2021/12/25 05:37:07;;;;;;;8.25;4.72;;;5.10;98.60;;;;;;5084932;27;20483;-73
2021/12/25 05:39:51;;;;;;;8.35;5.07;;;5.10;98.40;;;;;;5118409;27;20757;-74
2021/12/25 05:42:23;;;;;;;9.18;4.82;;;5.00;98.60;;;;;;5111473;27;20402;-71
2021/12/25 05:44:50;;;;;;;7.10;4.22;;;4.90;98.30;;;;;;5116907;27;20420;-69
2021/12/25 05:47:22;;;;;;;7.53;4.50;;;4.90;98.40;;;;;;5107130;27;20452;-73
2021/12/25 05:49:51;;;;;;;7.68;4.10;;;4.90;98.70;;;;;;5118200;27;20800;-70
2021/12/25 05:52:43;;;;;;;6.15;3.80;;;4.90;98.80;;;;;;5103044;27;20452;-72
2021/12/25 05:55:25;;;;;;;7.55;3.92;;;5.00;98.80;;;;;;5106515;27;20438;-73
2021/12/25 05:58:09;;;;;;;7.72;3.65;;;4.90;98.50;;;;;;5116714;27;20496;-73
2021/12/25 06:00:58;;;;;;;6.20;3.10;;;4.90;98.30;;;;;;5096856;28;20465;-75
2021/12/25 06:03:23;;;;;;;5.07;3.17;;;4.90;98.20;;;;;;5109480;27;20440;-73
2021/12/25 06:05:49;;;;;;;8.02;3.35;;;4.90;98.20;;;;;;5108137;27;20457;-73
2021/12/25 06:08:15;;;;;;;7.40;3.07;;;4.80;98.30;;;;;;5104869;28;20409;-73
2021/12/25 06:10:42;;;;;;;7.60;3.10;;;4.80;98.10;;;;;;5135550;27;20422;-74
2021/12/25 06:13:14;;;;;;;6.28;3.20;;;4.70;98.00;;;;;;5126196;27;20400;-72
2021/12/25 06:15:41;;;;;;;6.20;3.30;;;4.70;98.00;;;;;;5089546;27;20722;-73
2021/12/25 06:18:25;;;;;;;6.55;3.10;;;4.80;98.00;;;;;;5107501;27;20415;-72
2021/12/25 06:20:58;;;;;;;5.80;3.03;;;4.70;97.80;;;;;;5115998;27;20406;-74
2021/12/25 06:23:42;;;;;;;5.03;2.83;;;4.70;98.10;;;;;;5079613;28;20421;-73
2021/12/25 06:26:18;;;;;;;5.22;2.95;;;4.70;98.00;;;;;;5083213;28;20422;-73
2021/12/25 06:29:19;;;;;;;4.38;2.80;;;4.60;97.60;;;;;;5039115;28;20421;-72
2021/12/25 06:31:54;;;;;;;7.63;3.50;;;4.60;97.70;;;;;;5094622;27;20452;-72
2021/12/25 06:34:38;;;;;;;7.13;3.35;;;4.50;97.50;;;;;;5080012;28;20439;-71
2021/12/25 06:37:13;;;;;;;6.72;3.53;;;4.50;97.30;;;;;;5070053;28;20564;-72
2021/12/25 06:40:04;;;;;;;6.97;3.20;;;4.50;97.50;;;;;;5091767;27;20850;-71
2021/12/25 06:42:34;;;;;;;8.20;3.10;;;4.50;97.00;;;;;;5102153;28;20427;-73
2021/12/25 06:45:01;;;;;;;7.20;3.15;;;4.40;96.80;;;;;;5088770;28;20416;-73
2021/12/25 06:47:27;;;;;;;5.80;3.10;;;4.30;97.00;;;;;;5119709;27;20756;-73
2021/12/25 06:49:53;;;;;;;6.20;3.45;;;4.20;96.80;;;;;;5097369;28;20432;-71
2021/12/25 06:52:18;;;;;;;7.23;3.30;;;4.10;97.10;;;;;;5113437;28;20448;-75
2021/12/25 06:55:05;;;;;;;8.48;3.38;;;4.10;96.80;;;;;;5109969;28;20402;-71
2021/12/25 06:57:45;;;;;;;5.17;3.10;;;4.00;97.00;;;;;;5102042;28;20407;-74
2021/12/25 07:00:13;;;;;;;8.47;3.60;;;3.90;96.60;;;;;;5105485;28;20487;-71
2021/12/25 07:02:39;;;;;;;8.25;4.38;;;3.80;96.80;;;;;;5088724;28;20422;-73
2021/12/25 07:05:25;;;;;;;8.00;3.40;;;3.80;97.00;;;;;;5101458;28;20410;-71
2021/12/25 07:08:07;;;;;;;6.65;2.83;;;3.80;97.00;;;;;;5103278;28;20408;-73
2021/12/25 07:10:58;;;;;;;5.90;3.10;;;3.80;97.50;;;;;;5085177;28;20916;-73
2021/12/25 07:13:51;;;;;;;8.38;3.70;;;3.70;97.20;;;;;;5072865;28;20735;-73
2021/12/25 07:16:35;;;;;;;5.28;2.80;;;3.70;97.50;;;;;;5103749;28;20196;-73
2021/12/25 07:19:20;;;;;;;6.27;2.80;;;3.20;97.80;;;;;;5100633;28;20784;-72
2021/12/25 07:22:14;;;;;;;4.65;2.60;;;3.30;98.00;;;;;;5099731;28;20473;-73
2021/12/25 07:24:51;;;;;;;6.73;2.87;;;3.40;98.10;;;;;;5100899;28;20408;-73
2021/12/25 07:27:36;;;;;;;4.10;2.50;;;3.30;97.70;;;;;;5105745;28;20497;-73
2021/12/25 07:30:05;;;;;;;4.60;2.60;;;3.30;97.50;;;;;;5106004;28;20423;-73
2021/12/25 07:32:31;;;;;;;11.55;2.72;;;3.30;97.80;;;;;;5100652;28;20408;-72
2021/12/25 07:34:57;;;;;;;4.18;2.38;;;3.30;97.90;;;;;;5109781;27;20804;-75
2021/12/25 07:37:23;;;;;;;4.05;2.20;;;3.30;97.10;;;;;;5110404;27;20407;-74
2021/12/25 07:39:49;;;;;;;5.27;2.40;;;3.20;97.30;;;;;;5109836;27;20400;-72
2021/12/25 07:42:14;;;;;;;5.15;2.60;;;3.20;97.50;;;;;;5106136;28;20425;-73
2021/12/25 07:45:06;;;;;;;3.42;2.00;;;3.20;97.20;;;;;;5114244;27;20469;-71
2021/12/25 07:47:34;;;;;;;3.72;2.00;;;3.20;97.20;;;;;;5094007;27;20434;-71
2021/12/25 07:50:03;;;;;;;4.55;2.50;;;3.20;96.70;;;;;;5106634;27;20404;-71
2021/12/25 07:52:30;;;;;;;6.25;2.40;;;3.10;96.60;;;;;;5110402;27;21044;-71
2021/12/25 07:54:55;;;;;;;5.00;2.30;;;3.10;96.70;;;;;;5110439;27;20414;-74
2021/12/25 07:57:21;;;;;;;4.10;2.10;;;3.10;96.80;;;;;;5109886;27;20411;-73
2021/12/25 07:59:47;;;;;;;4.87;2.17;;;3.00;97.10;;;;;;5117948;27;20400;-71
2021/12/25 08:02:12;;;;;;;5.78;2.63;;;3.00;96.60;;;;;;5105576;27;20412;-73
2021/12/25 08:04:38;;;;;;;4.17;2.63;;;3.00;96.70;;;;;;5137373;27;20409;-73
2021/12/25 08:07:04;;;;;;;4.55;2.72;;;2.90;96.70;;;;;;5111700;27;20481;-73
2021/12/25 08:09:31;;;;;;;5.18;2.40;;;2.90;96.70;;;;;;5120255;27;20410;-73
2021/12/25 08:11:59;;;;;;;5.90;2.22;;;2.90;96.60;;;;;;5109099;27;20953;-73
2021/12/25 08:14:25;;;;;;;4.20;1.98;;;2.80;96.60;;;;;;5113875;27;20416;-72
2021/12/25 08:17:00;;;;;;;4.45;2.17;;;2.80;96.60;;;;;;5091525;27;20408;-73
2021/12/25 08:19:44;;;;;;;5.75;2.45;;;2.80;96.40;;;;;;5098179;27;20802;-73
2021/12/25 08:22:28;;;;;;;5.07;2.17;;;2.80;96.80;;;;;;5105190;28;20449;-73
2021/12/25 08:25:14;;;;;;;4.90;2.30;;;2.80;96.90;;;;;;5111979;27;20414;-72
2021/12/25 08:28:00;;;;;;;5.32;2.58;;;2.80;97.20;;;;;;5106528;28;20423;-72
2021/12/25 08:30:46;;;;;;;4.65;2.50;;;2.80;96.60;;;;;;5086459;28;20427;-72
2021/12/25 08:33:30;;;;;;;4.68;2.35;;;2.70;96.60;;;;;;5115173;27;20559;-73
2021/12/25 08:36:15;;;;;;;5.00;2.30;;;2.80;97.00;;;;;;5120876;27;20431;-72
2021/12/25 08:38:41;;;;;;;3.83;2.10;;;2.80;96.60;;;;;;5121658;27;20398;-72
2021/12/25 08:41:07;;;;;;;4.77;2.10;;;2.80;96.60;;;;;;5104605;27;20462;-72
2021/12/25 08:43:36;;;;;;;6.38;2.50;;;2.80;96.30;;;;;;5110465;27;20423;-73
2021/12/25 08:46:03;;;;;;;5.30;2.42;;;2.80;96.10;;;;;;5109961;27;21537;-73
2021/12/25 08:48:30;;;;;;;4.63;1.90;;;2.70;96.00;;;;;;5115953;27;20418;-72
2021/12/25 08:50:58;;;;;;;5.38;1.77;;;2.80;95.90;;;;;;5103303;28;22974;-73
2021/12/25 08:53:25;;;;;;;2.70;1.60;;;2.80;95.40;;;;;;5110219;28;20408;-73
2021/12/25 08:55:55;;;;;;;3.50;1.60;;;2.70;95.20;;;;;;5122705;27;20409;-73
2021/12/25 08:58:21;;;;;;;5.57;3.25;;;2.70;95.00;;;;;;5120054;27;20487;-72
2021/12/25 09:00:50;;;;;;;3.23;1.50;;;2.70;94.60;;;;;;5100325;28;20413;-74
2021/12/25 09:03:16;;;;;;;3.15;1.33;;;2.70;94.80;;;;;;5104929;28;20404;-72
2021/12/25 09:05:42;;;;;;;3.72;1.50;;;2.70;94.80;;;;;;5100471;27;20469;-73
2021/12/25 09:08:07;;;;;;;3.40;1.77;;;2.70;94.30;;;;;;5110620;27;20776;-72
2021/12/25 09:10:35;;;;;;;3.80;1.87;;;2.70;94.10;;;;;;5112599;27;20403;-73
2021/12/25 09:13:00;;;;;;;4.40;1.42;;;2.80;94.50;;;;;;5110200;27;21327;-73
2021/12/25 09:15:26;;;;;;;1.80;1.20;;;2.90;93.70;;;;;;5103462;27;20412;-74
2021/12/25 09:17:52;;;;;;;3.30;1.42;;;3.00;94.10;;;;;;5107408;27;20433;-72
2021/12/25 09:20:20;;;;;;;2.10;1.10;;;3.40;94.10;;;;;;5104716;27;20432;-73
2021/12/25 09:22:46;;;;;;;2.00;1.05;;;4.40;93.00;;;;;;5106939;27;21176;-73
2021/12/25 09:25:13;;;;;;;2.03;0.93;;;5.70;90.50;;;;;;5103290;27;20503;-75
2021/12/25 09:27:39;;;;;;;2.88;1.02;;;7.10;83.20;;;;;;5120111;27;20416;-72
2021/12/25 09:30:06;;;;;;;3.03;1.30;;;8.40;75.50;;;;;;5105925;28;20396;-70
2021/12/25 09:32:32;;;;;;;1.75;0.90;;;9.50;67.90;;;;;;5106304;27;20395;-71
2021/12/25 09:35:00;;;;;;;1.88;0.90;;;10.50;60.60;;;;;;5104516;28;20442;-69
2021/12/25 09:37:27;;;;;;;2.40;1.00;;;11.20;56.30;;;;;;5106582;27;21203;-69
2021/12/25 09:39:53;;;;;;;2.50;1.00;;;12.00;54.70;;;;;;5106290;27;20408;-69
2021/12/25 09:42:22;;;;;;;1.90;1.00;;;12.60;52.70;;;;;;5105713;28;20404;-69
2021/12/25 09:44:48;;;;;;;3.00;1.00;;;13.00;51.10;;;;;;5107226;27;20407;-69
2021/12/25 09:47:13;;;;;;;2.08;0.90;;;13.40;49.00;;;;;;5109927;27;21256;-69
2021/12/25 09:49:39;;;;;;;2.60;1.50;;;13.60;47.40;;;;;;5107106;27;20426;-70
2021/12/25 09:52:05;;;;;;;1.47;0.80;;;13.80;45.80;;;;;;5109468;27;20532;-70
2021/12/25 09:54:31;;;;;;;2.80;0.90;;;14.00;45.20;;;;;;5104834;27;20481;-70
2021/12/25 09:56:58;;;;;;;2.20;0.70;;;14.20;43.60;;;;;;5108943;27;20417;-70
2021/12/25 09:59:24;;;;;;;2.40;0.87;;;14.30;43.60;;;;;;5108152;27;20390;-70
2021/12/25 10:01:56;;;;;;;2.03;0.90;;;14.20;42.40;;;;;;5107442;27;20406;-70
2021/12/25 10:04:38;;;;;;;2.40;0.88;;;13.70;42.90;;;;;;5106787;27;20868;-70
2021/12/25 10:07:18;;;;;;;2.67;0.97;;;12.90;43.70;;;;;;5118295;27;20479;-70
2021/12/25 10:10:00;;;;;;;2.80;0.90;;;11.80;45.50;;;;;;5106461;28;20412;-69
2021/12/25 10:12:41;;;;;;;3.47;1.00;;;10.70;47.40;;;;;;5106810;27;20800;-70
2021/12/25 10:15:08;;;;;;;;;;;9.60;48.80;;;;;;5113591;27;20030;-71
2021/12/25 10:17:41;;;;;;;;;;;8.30;52.10;;;;;;5108744;28;19962;-71
2021/12/25 10:20:11;;;;;;;;;;;7.30;56.20;;;;;;5138594;27;19915;-70
2021/12/25 10:22:52;;;;;;;;;;;6.50;59.50;;;;;;5111523;27;20027;-70
2021/12/25 10:25:18;;;;;;;;;;;5.90;59.90;;;;;;5109571;28;19918;-71
2021/12/25 10:27:53;;;;;;;2.83;0.90;;;5.40;62.10;;;;;;5111408;27;20412;-70
2021/12/25 10:30:19;;;;;;;2.80;1.02;;;5.40;64.30;;;;;;5126278;27;20192;-71
2021/12/25 10:32:45;;;;;;;2.95;1.23;;;5.00;65.00;;;;;;5120821;27;20169;-71
2021/12/25 10:35:12;;;;;;;;;;;4.70;66.10;;;;;;5114673;28;20039;-71
2021/12/25 10:37:39;;;;;;;;;;;4.40;67.90;;;;;;5140162;27;20249;-71
2021/12/25 10:40:16;;;;;;;;;;;4.20;69.90;;;;;;5117968;28;20381;-70
2021/12/25 10:42:44;;;;;;;;;;;4.10;71.50;;;;;;5106346;28;19915;-71
2021/12/25 10:45:12;;;;;;;;;;;3.90;73.00;;;;;;5109579;28;19976;-70
2021/12/25 10:47:38;;;;;;;;;;;3.80;74.10;;;;;;5111269;28;19927;-71
2021/12/25 10:50:11;;;;;;;;;;;3.70;74.30;;;;;;5106466;28;19933;-70
2021/12/25 10:52:45;;;;;;;3.53;0.82;;;3.60;74.40;;;;;;5115512;28;20191;-70
2021/12/25 10:55:25;;;;;;;2.17;0.90;;;3.60;71.40;;;;;;5107463;28;20216;-71
2021/12/25 10:57:59;;;;;;;1.05;0.70;;;3.50;70.50;;;;;;5107519;28;20882;-70
2021/12/25 11:00:30;;;;;;;3.75;1.17;;;3.40;71.30;;;;;;5108601;28;20191;-72
2021/12/25 11:03:03;;;;;;;2.67;1.17;;;3.40;71.90;;;;;;5107938;28;20254;-70
2021/12/25 11:05:35;;;;;;;2.30;0.85;;;3.40;72.20;;;;;;5110045;28;20178;-70
2021/12/25 11:08:12;;;;;;;0.82;0.80;;;3.40;72.30;;;;;;5101318;28;20205;-70
2021/12/25 11:10:56;;;;;;;1.52;1.02;;;3.40;73.10;;;;;;5110328;27;20173;-70
2021/12/25 11:13:24;;;;;;;2.25;1.02;;;3.50;73.10;;;;;;5088832;28;20207;-70
2021/12/25 11:15:56;;;;;;;1.35;0.80;;;3.50;73.40;;;;;;5111134;27;20661;-69
2021/12/25 11:18:22;;;;;;;1.98;1.05;;;3.50;73.10;;;;;;5123885;27;20246;-70
2021/12/25 11:20:48;;;;;;;1.27;0.80;;;3.60;73.60;;;;;;5108855;27;20601;-70
2021/12/25 11:23:15;;;;;;;0.75;0.60;;;3.70;73.50;;;;;;5108276;27;20189;-70
2021/12/25 11:25:43;;;;;;;2.03;0.90;;;3.70;74.40;;;;;;5122556;27;20181;-70
2021/12/25 11:28:12;;;;;;;1.23;0.93;;;3.80;74.20;;;;;;5109728;27;20294;-70
2021/12/25 11:30:44;;;;;;;1.42;0.88;;;3.80;74.60;;;;;;5108133;27;20668;-70
2021/12/25 11:33:10;;;;;;;;;;;3.80;74.40;;;;;;5108601;28;20508;-71
2021/12/25 11:35:36;;;;;;;;;;;4.10;78.40;;;;;;5110619;27;19911;-71
2021/12/25 11:38:05;;;;;;;1.92;0.85;;;4.60;79.60;;;;;;5140945;27;20276;-71
2021/12/25 11:40:35;;;;;;;2.42;1.10;;;5.20;77.90;;;;;;5106225;27;20407;-70
2021/12/25 11:43:04;;;;;;;1.95;1.13;;;6.80;63.90;;;;;;5112586;27;20969;-72
2021/12/25 11:45:36;;;;;;;1.05;0.73;;;8.20;54.10;;;;;;5120139;27;20435;-71
2021/12/25 11:48:21;;;;;;;1.42;0.80;;;9.10;52.00;;;;;;5109617;28;20420;-72
2021/12/25 11:50:49;;;;;;;2.10;0.97;;;9.60;49.80;;;;;;5112784;27;21358;-71
2021/12/25 11:53:30;;;;;;;1.75;0.90;;;9.70;47.00;;;;;;5108496;27;20404;-72
2021/12/25 11:58:53;;;;;;;2.50;0.80;;;10.20;45.50;;;;;;5114684;27;20805;-70
2021/12/25 12:01:26;;;;;;;1.75;0.85;;;10.50;44.90;;;;;;5116543;27;20409;-70
2021/12/25 12:03:59;;;;;;;1.60;0.80;;;10.90;44.60;;;;;;5121029;27;20398;-72
2021/12/25 12:06:46;;;;;;;1.93;1.03;;;11.20;43.70;;;;;;5115635;27;20404;-71
2021/12/25 12:09:30;;;;;;;1.17;0.85;;;11.50;41.60;;;;;;5108900;27;20456;-71
2021/12/25 12:12:27;;;;;;;2.65;0.90;;;11.70;41.20;;;;;;5112483;27;20394;-73
2021/12/25 12:15:15;;;;;;;1.90;0.80;;;11.90;40.70;;;;;;5116601;27;20406;-72
2021/12/25 12:18:25;;;;;;;1.80;1.00;;;12.10;40.30;;;;;;5113480;27;20404;-71
2021/12/25 12:20:56;;;;;;;1.77;1.00;;;12.20;38.80;;;;;;5106897;28;20405;-70
2021/12/25 12:23:39;;;;;;;1.38;0.80;;;12.30;38.40;;;;;;5110473;27;20491;-72
2021/12/25 12:26:09;;;;;;;2.10;1.00;;;12.30;38.30;;;;;;5113456;27;20408;-70
2021/12/25 12:28:45;;;;;;;4.80;1.10;;;12.30;38.10;;;;;;5112027;27;20420;-71
2021/12/25 12:31:33;;;;;;;1.50;0.70;;;12.30;37.80;;;;;;5108110;28;20465;-71
2021/12/25 12:33:59;;;;;;;1.77;1.02;;;12.40;38.10;;;;;;5114319;27;20741;-70
2021/12/25 12:36:27;;;;;;;3.50;0.90;;;12.30;38.90;;;;;;5111528;27;20437;-70
2021/12/25 12:39:10;;;;;;;2.08;0.70;;;12.30;38.00;;;;;;5110818;27;20422;-70
2021/12/25 12:41:42;;;;;;;1.50;1.00;;;12.30;38.70;;;;;;5117214;27;20405;-70
2021/12/25 12:44:11;;;;;;;1.80;1.00;;;12.30;38.20;;;;;;5112132;27;20475;-70
2021/12/25 12:46:49;;;;;;;1.65;0.82;;;12.30;38.10;;;;;;5124112;27;20394;-70
2021/12/25 12:49:20;;;;;;;2.30;1.00;;;12.20;38.90;;;;;;5108895;27;20818;-70
2021/12/25 12:52:09;;;;;;;1.85;0.90;;;11.90;39.30;;;;;;5110872;27;20181;-70
2021/12/25 12:54:44;;;;;;;3.78;1.00;;;11.00;41.90;;;;;;5111938;27;20210;-70
2021/12/25 12:57:15;;;;;;;1.27;0.80;;;10.50;43.00;;;;;;5115704;27;20408;-70
2021/12/25 12:59:47;;;;;;;3.85;0.80;;;10.60;41.40;;;;;;5095705;27;20906;-70
2021/12/25 13:02:14;;;;;;;4.53;0.90;;;10.60;41.20;;;;;;5102890;28;20904;-70
2021/12/25 13:04:49;;;;;;;1.73;1.00;;;10.50;42.00;;;;;;5113146;27;20317;-70
2021/12/25 13:07:18;;;;;;;2.72;1.10;;;9.80;43.60;;;;;;5110638;27;20181;-70
2021/12/25 13:09:51;;;;;;;5.68;1.50;;;9.40;45.20;;;;;;5108902;27;20216;-71
2021/12/25 13:12:57;;;;;;;4.88;1.08;;;9.00;46.60;;;;;;5114567;27;20199;-71
2021/12/25 13:15:31;;;;;;;2.15;0.95;;;8.70;47.30;;;;;;5137661;27;20241;-69
2021/12/25 13:18:01;;;;;;;2.80;1.27;;;8.40;48.60;;;;;;5107265;27;20418;-70
2021/12/25 13:20:43;;;;;;;2.25;1.20;;;8.80;46.30;;;;;;5106944;28;20408;-70
2021/12/25 13:23:16;;;;;;;3.45;1.20;;;9.10;46.80;;;;;;5138963;27;20409;-70
2021/12/25 13:25:56;;;;;;;5.40;1.50;;;9.10;45.80;;;;;;5105887;28;20415;-70
2021/12/25 13:28:24;;;;;;;4.93;1.80;;;9.10;48.00;;;;;;5108548;28;20508;-71
2021/12/25 13:31:11;;;;;;;3.03;1.50;;;9.20;46.10;;;;;;5104867;28;20415;-71
2021/12/25 13:33:47;;;;;;;3.65;1.30;;;9.20;46.10;;;;;;5103303;28;20885;-71
2021/12/25 13:36:20;;;;;;;3.17;1.30;;;9.20;46.90;;;;;;5105057;28;20440;-70
2021/12/25 13:38:50;;;;;;;3.30;1.33;;;9.10;46.00;;;;;;5110433;27;20419;-71
2021/12/25 13:41:35;;;;;;;2.95;1.10;;;9.00;46.70;;;;;;5096808;28;20453;-72
2021/12/25 13:44:12;;;;;;;3.10;1.20;;;8.90;47.10;;;;;;5108119;28;20880;-71
2021/12/25 13:46:47;;;;;;;4.70;1.35;;;8.70;47.10;;;;;;5104939;27;21032;-70
2021/12/25 13:49:33;;;;;;;2.67;1.23;;;8.60;47.00;;;;;;5108940;28;20972;-71
2021/12/25 13:52:24;;;;;;;2.90;1.50;;;8.40;49.00;;;;;;5103504;28;20423;-70
2021/12/25 13:55:06;;;;;;;4.55;1.75;;;8.20;48.20;;;;;;5097669;27;20416;-71
2021/12/25 13:57:34;;;;;;;2.03;1.50;;;8.00;48.20;;;;;;5114374;27;20266;-71
2021/12/25 14:00:09;;;;;;;4.03;1.60;;;7.50;49.40;;;;;;5109426;27;20412;-70
2021/12/25 14:02:42;;;;;;;4.03;1.60;;;7.50;49.20;;;;;;5116853;27;20817;-71
2021/12/25 14:05:08;;;;;;;4.25;1.48;;;7.50;50.60;;;;;;5114281;27;20827;-71
2021/12/25 14:07:34;;;;;;;4.35;1.10;;;7.10;51.80;;;;;;5109670;27;20192;-73
2021/12/25 14:10:07;;;;;;;2.03;1.20;;;6.80;52.90;;;;;;5122061;27;20199;-74
2021/12/25 14:12:34;;;;;;;4.70;1.30;;;6.60;53.20;;;;;;5108842;27;20613;-71
2021/12/25 14:15:01;;;;;;;3.05;1.30;;;6.40;53.40;;;;;;5115534;27;20268;-71
2021/12/25 14:17:27;;;;;;;3.55;1.50;;;6.30;54.00;;;;;;5107635;28;20188;-71
2021/12/25 14:20:16;;;;;;;3.67;1.25;;;6.20;53.90;;;;;;5114150;27;20204;-71
2021/12/25 14:22:44;;;;;;;2.22;1.00;;;6.10;54.10;;;;;;5089197;28;20181;-71
2021/12/25 14:25:20;;;;;;;1.83;1.02;;;6.00;54.70;;;;;;5116603;27;20560;-71
2021/12/25 14:28:02;;;;;;;2.25;1.15;;;6.00;54.70;;;;;;5104761;28;20195;-70